This is the latest recevied weather packets stored in our database for station/object DL2AKT-13. If no packets are shown the sender has not sent any weather packets the latest 10 day(s).
| Time | Temp. | Humidity | Pressure | Rain* | Wind** | Luminosity | Snow |
|---|---|---|---|---|---|---|---|
| 1777875351 | 13.89° C | 68% | 1012.4 hPa | 0 mm | - | - | - |
| 1777864537 | 13.33° C | 73% | 1011.8 hPa | 0.25 mm | - | - | - |
| 1777862733 | 14.44° C | 71% | 1011.9 hPa | 0.25 mm | - | - | - |
| 1777861833 | 14.44° C | 69% | 1011.5 hPa | 0 mm | - | - | - |
| 1777857329 | 14.44° C | 70% | 1011.7 hPa | 0 mm | - | - | - |
| 1777854622 | 15° C | 62% | 1012.1 hPa | 0 mm | - | - | - |
| 1777846508 | 16.67° C | 55% | 1011.8 hPa | 0 mm | - | - | - |
| 1777843805 | 16.67° C | 55% | 1011.3 hPa | 0 mm | - | - | - |
| 1777842903 | 16.67° C | 55% | 1011.1 hPa | 0 mm | - | - | - |
| 1777837565 | 17.78° C | 51% | 1010.9 hPa | 0 mm | - | - | - |
| 1777828554 | 20.56° C | 43% | 1010.2 hPa | 0 mm | - | - | - |
| 1777825859 | 21.67° C | 39% | 1010.3 hPa | 0 mm | - | - | - |
| 1777823150 | 22.22° C | 39% | 1010.4 hPa | 0 mm | - | - | - |
| 1777820461 | 23.33° C | 38% | 1010.5 hPa | 0 mm | - | - | - |
| 1777819564 | 23.89° C | 36% | 1010.6 hPa | 0 mm | - | - | - |
| 1777815942 | 23.89° C | 34% | 1011 hPa | 0 mm | - | - | - |
| 1777814138 | 23.33° C | 34% | 1011.3 hPa | 0 mm | - | - | - |
| 1777808725 | 24.44° C | 31% | 1011.9 hPa | 0 mm | - | - | - |
| 1777796150 | 21.11° C | 44% | 1013.2 hPa | 0 mm | - | - | - |
| 1777791637 | 19.44° C | 42% | 1013.4 hPa | 0 mm | - | - | - |
| 1777790735 | 18.89° C | 44% | 1013.4 hPa | 0 mm | - | - | - |
| 1777789831 | 18.33° C | 46% | 1013.4 hPa | 0 mm | - | - | - |
| 1777788032 | 17.22° C | 48% | 1013.4 hPa | 0 mm | - | - | - |
| 1777787119 | 16.11° C | 51% | 1013.4 hPa | 0 mm | - | - | - |
| 1777781744 | 14.44° C | 51% | 1013.6 hPa | 0 mm | - | - | - |
* Rain latest hour (hover to see other rain measurements)
** Current wind speed in m/s (hover to see current wind gust speed)